METAR Data
IDs: Format: Raw Decoded Include TAF

Data at: 1901 UTC 25 Mar 2019

KRBD 251853Z 35012G18KT 10SM CLR 21/09 A3020 RMK AO2 SLP222 T02060089
KRBD 251753Z 34011KT 10SM CLR 21/08 A3021 RMK AO2 SLP223 T02060083 10206 20128 50013
KRBD 251653Z 35013KT 10SM CLR 20/09 A3021 RMK AO2 SLP224 T02000089
KRBD 251553Z 36010KT 10SM CLR 18/08 A3020 RMK AO2 SLP222 T01830078
KRBD 251453Z 01011KT 10SM CLR 17/08 A3017 RMK AO2 SLP211 T01670083 53020
KRBD 251353Z 02008KT 10SM CLR 15/08 A3014 RMK AO2 SLP201 T01500083
KRBD 251253Z 01006KT 10SM CLR 13/08 A3013 RMK AO2 SLP197 T01280083
KRBD 251153Z 01008KT 10SM OVC060 14/09 A3011 RMK AO2 SLP190 60003 70003 T01440089 10200 20144 53024
KRBD 251053Z AUTO 02010KT 10SM OVC050 16/09 A3009 RMK AO2 SLP182 T01560094
KRBD 250953Z AUTO 04008KT 10SM BKN050 16/11 A3005 RMK AO2 SLP170 T01610106
KRBD 250853Z AUTO 05004KT 10SM BKN047 OVC060 17/13 A3003 RMK AO2 SLP164 60003 T01670128 53008
KRBD 250753Z AUTO 03008KT 10SM OVC048 17/14 A3003 RMK AO2 SLP163 T01670139
KRBD 250653Z AUTO 34011KT 10SM CLR 17/15 A3001 RMK AO2 LTG DSNT E AND SE RAB0554E32 SLP156 P0003 T01670150
KRBD 250630Z AUTO 32010KT 10SM -RA BKN041 BKN070 17/16 A3000 RMK AO2 LTG DSNT E-S RAB0554 P0003 T01670156
KRBD 250553Z AUTO 34015G24KT 10SM VCTS BKN039 OVC047 20/14 A3001 RMK AO2 LTG DSNT NE AND W SLP155 T02000144 10244 20200 402670156 51012
KRBD 250453Z AUTO 26004KT 10SM CLR 21/16 A3000 RMK AO2 LTG DSNT N SLP153 T02060161
KRBD 250353Z AUTO 28006KT 10SM SCT050 22/16 A3000 RMK AO2 LTG DSNT N AND NE SLP152 T02170161
KRBD 250253Z AUTO 19007KT 10SM CLR 22/16 A2998 RMK AO2 LTG DSNT W AND NW SLP144 T02220156 53017
KRBD 250153Z AUTO 18009KT 10SM CLR 22/16 A2995 RMK AO2 SLP136 T02220156
KRBD 250053Z AUTO 18010KT 10SM CLR 23/16 A2993 RMK AO2 LTG DSNT NW-NE SLP130 T02280156
KRBD 242353Z 18016G21KT 10SM CLR 24/16 A2993 RMK AO2 LTG DSNT N AND NE SLP128 T02440161 10267 20233 56015
KRBD 242253Z 17013G20KT 10SM CLR 26/17 A2993 RMK AO2 LTG DSNT N SLP130 T02560167
KRBD 242153Z 18012G18KT 10SM FEW045 27/17 A2995 RMK AO2 SLP136 T02670167
KRBD 242053Z 18012KT 10SM FEW043 27/16 A2997 RMK AO2 SLP142 T02670161 56020
KRBD 241953Z 18013KT 10SM BKN040 26/17 A2998 RMK AO2 SLP146 T02560167
KRBD 241853Z 22008KT 180V240 10SM OVC038 25/17 A3001 RMK AO2 SLP155 T02500167
KRBD 241753Z 24011KT 10SM BKN030 24/16 A3003 RMK AO2 SLP163 T02390161 10244 20156 58005
KRBD 241735Z 22009G17KT 10SM BKN030 23/16 A3004 RMK AO2 T02330161
KRBD 241653Z 22013G21KT 10SM BKN027 23/16 A3004 RMK AO2 SLP167 T02280161
KRBD 241628Z 21014G22KT 10SM BKN025 23/16 A3004 RMK AO2 T02280161
KRBD 241553Z 21013G23KT 10SM FEW024 22/16 A3005 RMK AO2 SLP168 T02220161
KRBD 241505Z 21012KT 10SM SCT011 20/16 A3004 RMK AO2 T02000161
KRBD 241453Z 20013G18KT 10SM BKN011 19/16 A3005 RMK AO2 SLP169 T01940161 52004
KRBD 241353Z 19008KT 8SM OVC010 18/16 A3004 RMK AO2 CIG 008V012 SLP169 T01780161
KRBD 241253Z 17008KT 6SM BR BKN010 16/15 A3003 RMK AO2 SLP166 T01610150
KRBD 241250Z 17007KT 6SM BR BKN010 16/15 A3003 RMK AO2
KRBD 241153Z 17007KT 9SM CLR 16/14 A3002 RMK AO2 SLP161 T01560144 10183 20156 53002
KRBD 241053Z AUTO 18008KT 10SM FEW013 FEW022 16/14 A3001 RMK AO2 SLP158 T01560144
KRBD 241045Z AUTO 17008KT 10SM SCT013 SCT022 16/14 A3001 RMK AO2 T01610144
KRBD 241018Z AUTO 17009KT 10SM BKN013 16/14 A3001 RMK AO2 T01610144
KRBD 240953Z AUTO 17008KT 10SM FEW015 16/14 A3001 RMK AO2 SLP156 T01610144
KRBD 240853Z AUTO 18006KT 10SM CLR 17/14 A3001 RMK AO2 SLP158 T01670144 58002
KRBD 240753Z AUTO 18012KT 10SM FEW018 17/14 A3002 RMK AO2 SLP160 T01720144